Decoded Metar for ZSAM (XIAMEN in CHINA) (IATA:XMN) | Meteo·Mobile Aviation Weather
aviador You're here:

ZSAM Decoded Metar

XIAMEN in CHINA
Report Time2019-01-17 00:00:00
UTC Time2019-01-17 00:39:41
Flight Rules vfr VFR
Wind090° at 8 kt
W.Decomp.*RWY 05: 5.9 kt HW 5.4 kt RCW
W.Rank090° ranks 6
Current wind is below 090° avg. (8.1)
Visibility9999 m
Phenomena:N/A
Clouds:Overcast 036 Hf
Expected CloudBase > 1,600 ft AGL from Temp-Dew spread
Ceiling3,600 ft
Temp13°C (ISA -1)
Dew Point09°C (77% RH)
AAT9.9°C
QNH1024 hPa
Density Alt112 ft
Elevation456 ft
Report Wrong Elevation
Raw Report
METAR ZSAM 170000Z 09004MPS 9999 OVC036 13/09 Q1024 NOSIG=

Extra information for ZSAM:More info

Metar Taf Metar & Taf Last 4 Metars F.Rules Stats Wind Profile Meteogram Temp Stats Airport Information Weather charts Add Link Nearby VenuesMetar ALERT Operation Metar Decoded Social comments